Time;durP1;ratioP1;P1;durP2;ratioP2;P2;SDS_P1;SDS_P2;PMS_P1;PMS_P2;Temp;Humidity;BMP_temperature;BMP_pressure;BME280_temperature;BME280_humidity;BME280_pressure;Samples;Min_cycle;Max_cycle;Signal;HPM_P1;HPM_P2
2023/05/01 00:01:18;;;;;;;4.83;2.47;;;;;;;10.77;91.64;63836.16;4974589;28;20431;-90
2023/05/01 00:03:43;;;;;;;3.70;2.17;;;;;;;10.75;92.40;63834.91;4955481;28;20037;-91
2023/05/01 00:06:09;;;;;;;3.97;2.20;;;;;;;10.74;91.90;63834.00;4954469;29;20035;-91
2023/05/01 00:08:34;;;;;;;3.40;2.45;;;;;;;10.74;92.17;63833.25;4936875;29;20471;-91
2023/05/01 00:11:08;;;;;;;5.27;2.20;;;;;;;10.73;92.65;63832.91;4955433;28;20023;-91
2023/05/01 00:13:34;;;;;;;3.20;2.15;;;;;;;10.73;93.02;63831.91;4966340;28;20031;-91
2023/05/01 00:16:00;;;;;;;4.47;2.40;;;;;;;10.72;92.54;63831.25;4954688;29;20115;-91
2023/05/01 00:18:29;;;;;;;5.35;2.30;;;;;;;10.72;91.51;63830.66;4953921;28;20034;-91
2023/05/01 00:20:54;;;;;;;5.43;2.15;;;;;;;10.71;92.74;63830.00;4954000;28;20027;-91
2023/05/01 00:23:19;;;;;;;4.43;2.17;;;;;;;10.71;92.55;63829.50;4954729;29;20075;-90
2023/05/01 00:25:45;;;;;;;5.32;2.30;;;;;;;10.71;93.21;63829.25;4970162;28;20500;-91
2023/05/01 00:28:10;;;;;;;5.43;2.33;;;;;;;10.71;93.15;63829.59;4961706;28;20027;-91
2023/05/01 00:30:35;;;;;;;3.77;2.20;;;;;;;10.71;92.93;63829.75;4963160;29;20031;-91
2023/05/01 00:33:01;;;;;;;8.23;2.30;;;;;;;10.70;92.36;63829.28;4977511;28;20050;-91
2023/05/01 00:35:26;;;;;;;4.70;2.53;;;;;;;10.70;92.38;63828.94;4983839;28;20030;-93
2023/05/01 00:37:51;;;;;;;5.55;2.30;;;;;;;10.69;92.90;63828.50;4985187;28;20042;-91
2023/05/01 00:40:17;;;;;;;2.83;2.37;;;;;;;10.68;92.33;63827.34;4983941;28;20026;-91
2023/05/01 00:42:42;;;;;;;5.93;2.67;;;;;;;10.68;92.61;63827.44;4973030;28;20513;-91
2023/05/01 00:45:08;;;;;;;7.53;2.30;;;;;;;10.67;92.56;63826.44;4974530;28;20031;-92
2023/05/01 00:47:37;;;;;;;6.57;2.25;;;;;;;10.67;93.21;63826.19;4958126;28;20027;-92
2023/05/01 00:50:04;;;;;;;5.22;2.50;;;;;;;10.67;93.39;63825.69;4954468;29;20061;-91
2023/05/01 00:52:30;;;;;;;3.90;2.50;;;;;;;10.66;94.00;63824.44;4954554;28;20027;-91
2023/05/01 00:54:57;;;;;;;7.20;2.50;;;;;;;10.65;93.91;63823.94;4936506;29;20054;-91
2023/05/01 00:57:22;;;;;;;12.38;2.65;;;;;;;10.65;95.20;63823.53;4954461;29;20019;-91
2023/05/01 00:59:48;;;;;;;6.40;2.33;;;;;;;10.64;94.42;63822.84;4964074;28;20085;-91
2023/05/01 01:02:14;;;;;;;5.50;2.60;;;;;;;10.64;94.20;63822.53;4950089;29;20035;-91
2023/05/01 01:04:41;;;;;;;5.72;2.80;;;;;;;10.63;94.63;63821.94;4955010;28;20498;-91
2023/05/01 01:07:13;;;;;;;7.00;2.78;;;;;;;10.62;94.00;63821.19;4953520;29;20031;-91
2023/05/01 01:10:09;;;;;;;9.20;2.60;;;;;;;10.61;93.58;63820.28;4975979;28;20054;-91
2023/05/01 01:12:43;;;;;;;4.23;2.63;;;;;;;10.60;94.42;63819.28;4970077;28;20297;-91
2023/05/01 01:15:22;;;;;;;4.70;2.95;;;;;;;10.59;94.79;63818.53;4972965;28;20043;-91
2023/05/01 01:17:58;;;;;;;5.40;2.67;;;;;;;10.59;94.28;63817.94;4987161;28;20041;-91
2023/05/01 01:20:45;;;;;;;5.57;3.10;;;;;;;10.58;94.95;63816.94;4949663;29;20111;-92
2023/05/01 01:23:33;;;;;;;6.43;2.70;;;;;;;10.57;94.54;63816.03;4952810;28;20082;-91
2023/05/01 01:26:36;;;;;;;7.75;2.58;;;;;;;10.56;94.83;63815.28;4952942;29;20031;-91
2023/05/01 01:29:38;;;;;;;3.92;2.47;;;;;;;10.55;95.00;63814.88;4952648;28;20032;-91
2023/05/01 01:32:25;;;;;;;5.97;3.20;;;;;;;10.54;95.29;63813.28;4954408;28;20035;-92
2023/05/01 01:34:54;;;;;;;5.38;2.25;;;;;;;10.53;95.39;63812.47;4956634;28;20031;-92
2023/05/01 01:37:23;;;;;;;5.87;2.77;;;;;;;10.52;95.58;63811.28;4956797;29;20073;-91
2023/05/01 01:39:56;;;;;;;5.40;2.90;;;;;;;10.51;95.30;63810.28;4957046;29;20830;-91
2023/05/01 01:42:28;;;;;;;4.82;2.63;;;;;;;10.50;95.00;63808.88;4963089;29;20030;-91
2023/05/01 01:44:57;;;;;;;5.53;2.60;;;;;;;10.48;95.02;63807.81;4962597;28;20019;-91
2023/05/01 01:47:32;;;;;;;7.55;2.70;;;;;;;10.47;95.19;63806.41;4975687;28;20534;-91
2023/05/01 01:50:03;;;;;;;5.85;2.60;;;;;;;10.46;95.61;63805.13;4960662;28;20062;-95
2023/05/01 01:52:29;;;;;;;7.28;2.85;;;;;;;10.44;95.96;63803.56;4975763;28;20023;-95
2023/05/01 01:55:04;;;;;;;4.82;2.60;;;;;;;10.43;96.38;63801.97;4970287;28;20664;-95
2023/05/01 01:57:31;;;;;;;5.40;2.72;;;;;;;10.42;96.93;63801.00;4958234;28;20113;-95
2023/05/01 01:59:57;;;;;;;5.50;2.90;;;;;;;10.41;96.58;63799.41;4962496;28;20145;-94
2023/05/01 02:02:23;;;;;;;4.80;2.80;;;;;;;10.40;95.93;63798.41;4959315;28;20546;-94
2023/05/01 02:04:50;;;;;;;6.00;2.78;;;;;;;10.38;96.46;63796.84;4973309;28;20031;-92
2023/05/01 02:07:18;;;;;;;6.28;2.70;;;;;;;10.37;96.65;63795.81;4974764;28;20026;-92
2023/05/01 02:09:44;;;;;;;5.97;2.70;;;;;;;10.36;96.60;63794.75;4972444;28;20437;-92
2023/05/01 02:12:10;;;;;;;4.07;2.60;;;;;;;10.35;96.29;63793.06;4965109;28;20063;-92
2023/05/01 02:14:36;;;;;;;5.90;2.53;;;;;;;10.33;94.74;63791.25;4953875;28;20045;-92
2023/05/01 02:17:03;;;;;;;4.13;2.40;;;;;;;10.32;95.42;63790.50;4972927;28;20484;-92
2023/05/01 02:19:32;;;;;;;5.83;2.60;;;;;;;10.30;95.97;63789.25;4975086;28;20026;-92
2023/05/01 02:21:59;;;;;;;7.13;2.80;;;;;;;10.29;95.70;63787.94;4974957;28;20062;-91
2023/05/01 02:24:29;;;;;;;8.30;2.92;;;;;;;10.28;95.94;63786.66;4980971;28;20026;-92
2023/05/01 02:27:08;;;;;;;3.83;2.72;;;;;;;10.27;96.24;63785.50;4976117;28;20027;-92
2023/05/01 02:29:34;;;;;;;5.97;3.08;;;;;;;10.26;96.64;63784.34;4999228;28;20030;-92
2023/05/01 02:32:00;;;;;;;4.95;2.65;;;;;;;10.25;97.10;63783.34;4991142;28;20042;-92
2023/05/01 02:34:25;;;;;;;6.10;2.93;;;;;;;10.24;96.59;63781.94;4961978;28;20030;-91
2023/05/01 02:36:50;;;;;;;8.48;2.90;;;;;;;10.23;96.64;63780.75;4977503;28;20036;-91
2023/05/01 02:39:16;;;;;;;4.90;3.10;;;;;;;10.22;96.48;63779.13;4976754;29;20075;-92
2023/05/01 02:41:43;;;;;;;3.73;2.70;;;;;;;10.21;96.99;63777.94;4960636;29;20066;-92
2023/05/01 02:44:10;;;;;;;4.37;3.07;;;;;;;10.19;96.11;63776.69;4973288;28;20304;-92
2023/05/01 02:46:36;;;;;;;6.22;3.30;;;;;;;10.18;96.89;63775.53;4962923;28;20027;-92
2023/05/01 02:49:02;;;;;;;7.43;3.10;;;;;;;10.17;96.83;63774.53;4956421;29;20031;-92
2023/05/01 02:51:30;;;;;;;4.50;3.17;;;;;;;10.16;97.15;63773.72;4963285;28;20073;-93
2023/05/01 02:53:55;;;;;;;6.95;3.25;;;;;;;10.15;97.11;63772.56;4974865;28;20505;-93
2023/05/01 02:56:21;;;;;;;4.60;3.10;;;;;;;10.14;97.90;63771.03;4961861;28;20027;-93
2023/05/01 02:58:49;;;;;;;6.22;3.38;;;;;;;10.13;97.72;63770.03;4969319;28;20589;-93
2023/05/01 03:01:14;;;;;;;5.90;3.50;;;;;;;10.12;97.48;63768.72;4962792;28;20487;-93
2023/05/01 03:03:39;;;;;;;5.73;3.20;;;;;;;10.10;97.91;63767.31;4955125;28;20042;-94
2023/05/01 03:06:04;;;;;;;6.07;3.20;;;;;;;10.08;97.53;63765.63;4937604;29;20046;-94
2023/05/01 03:08:30;;;;;;;5.03;3.15;;;;;;;10.07;97.93;63764.41;4965282;28;20036;-93
2023/05/01 03:10:55;;;;;;;8.40;3.20;;;;;;;10.06;98.28;63762.81;4954788;28;20027;-92
2023/05/01 03:13:21;;;;;;;6.53;3.60;;;;;;;10.04;98.69;63761.50;4954897;28;20086;-93
2023/05/01 03:15:46;;;;;;;6.53;3.63;;;;;;;10.03;99.44;63760.72;4954625;29;20045;-93
2023/05/01 03:18:12;;;;;;;5.27;3.20;;;;;;;10.02;99.15;63759.31;4965595;28;20113;-92
2023/05/01 03:20:37;;;;;;;5.37;3.17;;;;;;;10.00;99.23;63757.50;4964069;28;20030;-92
2023/05/01 03:23:03;;;;;;;9.03;3.90;;;;;;;9.99;99.48;63756.09;4967287;28;20483;-93
2023/05/01 03:25:28;;;;;;;8.02;3.40;;;;;;;9.97;99.13;63755.00;4937511;29;20090;-92
2023/05/01 03:27:53;;;;;;;8.07;3.60;;;;;;;9.96;99.17;63754.00;4954528;29;20049;-92
2023/05/01 03:30:19;;;;;;;5.00;3.40;;;;;;;9.95;99.53;63752.75;4955133;29;20027;-91
2023/05/01 03:32:44;;;;;;;5.40;3.57;;;;;;;9.94;99.53;63751.91;4968503;28;20031;-92
2023/05/01 03:35:09;;;;;;;7.17;3.70;;;;;;;9.93;99.74;63751.03;4970489;28;20550;-93
2023/05/01 03:37:35;;;;;;;6.50;3.47;;;;;;;9.92;99.73;63749.59;4953609;28;20031;-93
2023/05/01 03:40:00;;;;;;;7.00;3.77;;;;;;;9.91;99.71;63749.59;4936218;28;20030;-92
2023/05/01 03:42:26;;;;;;;5.40;3.70;;;;;;;9.91;100.00;63748.69;4962263;29;20070;-92
2023/05/01 03:44:51;;;;;;;5.80;3.28;;;;;;;9.90;100.00;63748.19;4955452;28;20023;-89
2023/05/01 03:47:18;;;;;;;4.50;3.60;;;;;;;9.89;100.00;63747.03;4938218;29;20036;-89
2023/05/01 03:49:44;;;;;;;8.35;3.85;;;;;;;9.88;99.35;63745.94;4959439;28;20030;-89
2023/05/01 03:52:10;;;;;;;5.70;3.60;;;;;;;9.87;99.96;63744.78;4972649;28;20039;-89
2023/05/01 03:54:37;;;;;;;9.90;3.42;;;;;;;9.86;99.56;63743.59;4965489;28;20027;-89
2023/05/01 03:57:02;;;;;;;6.70;3.70;;;;;;;9.85;99.00;63742.88;4961831;29;20106;-89
2023/05/01 03:59:27;;;;;;;7.83;3.37;;;;;;;9.84;100.00;63741.13;4954007;29;20770;-89
2023/05/01 04:01:53;;;;;;;7.57;3.77;;;;;;;9.83;99.55;63739.63;4970049;29;20023;-89
2023/05/01 04:04:18;;;;;;;7.83;3.60;;;;;;;9.82;100.00;63738.63;4968981;28;20027;-89
2023/05/01 04:06:43;;;;;;;5.13;3.63;;;;;;;9.81;100.00;63737.72;4972195;28;20031;-89
2023/05/01 04:09:09;;;;;;;9.13;3.85;;;;;;;9.81;99.87;63737.13;4960517;28;20035;-90
2023/05/01 04:11:35;;;;;;;7.00;3.67;;;;;;;9.80;100.00;63736.31;4952721;28;20074;-89
2023/05/01 04:14:00;;;;;;;8.87;3.73;;;;;;;9.78;100.00;63734.97;4962121;28;20294;-92
2023/05/01 04:16:26;;;;;;;5.93;3.87;;;;;;;9.77;100.00;63733.63;4972720;28;20031;-93
2023/05/01 04:18:51;;;;;;;9.10;3.73;;;;;;;9.77;100.00;63732.91;4972496;28;20065;-91
2023/05/01 04:21:17;;;;;;;7.43;4.30;;;;;;;9.76;100.00;63732.16;4971329;28;20360;-89
2023/05/01 04:23:43;;;;;;;9.30;4.07;;;;;;;9.75;100.00;63731.16;4963756;28;20042;-90
2023/05/01 04:26:08;;;;;;;7.57;3.83;;;;;;;9.74;100.00;63730.25;4958633;28;20509;-89
2023/05/01 04:28:33;;;;;;;7.37;4.07;;;;;;;9.73;100.00;63729.47;4965488;28;20031;-89
2023/05/01 04:30:59;;;;;;;7.70;3.90;;;;;;;9.72;100.00;63728.81;4951090;28;20557;-89
2023/05/01 04:33:24;;;;;;;8.43;4.63;;;;;;;9.72;100.00;63728.25;4952539;29;20019;-89
2023/05/01 04:35:50;;;;;;;7.07;3.80;;;;;;;9.70;100.00;63726.66;4956813;28;20031;-88
2023/05/01 04:38:15;;;;;;;11.87;4.57;;;;;;;9.69;100.00;63725.66;4969715;28;20065;-88
2023/05/01 04:40:40;;;;;;;8.50;4.47;;;;;;;9.68;100.00;63723.91;4972402;28;20033;-88
2023/05/01 04:43:06;;;;;;;7.43;4.43;;;;;;;9.67;100.00;63723.00;4953636;28;20559;-88
2023/05/01 04:45:31;;;;;;;5.00;4.30;;;;;;;9.67;100.00;63722.34;4966281;28;20116;-89
2023/05/01 04:47:56;;;;;;;11.37;4.30;;;;;;;9.66;100.00;63722.09;4952086;29;20023;-88
2023/05/01 04:50:22;;;;;;;7.27;4.37;;;;;;;9.66;100.00;63721.94;4968591;28;20030;-88
2023/05/01 04:52:47;;;;;;;6.35;4.00;;;;;;;9.66;100.00;63721.94;4972238;28;20042;-87
2023/05/01 04:55:12;;;;;;;6.93;4.07;;;;;;;9.66;100.00;63721.84;4970489;28;20038;-88
2023/05/01 04:57:38;;;;;;;8.97;4.33;;;;;;;9.66;100.00;63722.34;4970577;28;20031;-87
2023/05/01 05:00:04;;;;;;;10.33;4.30;;;;;;;9.66;100.00;63722.75;4969557;28;20062;-88
2023/05/01 05:02:29;;;;;;;6.63;3.88;;;;;;;9.66;100.00;63723.09;4959462;28;20510;-88
2023/05/01 05:04:55;;;;;;;8.70;4.57;;;;;;;9.67;100.00;63723.34;4953357;29;20023;-88
2023/05/01 05:07:21;;;;;;;9.25;4.38;;;;;;;9.67;100.00;63724.41;4955891;28;20031;-88
2023/05/01 05:09:46;;;;;;;7.83;4.30;;;;;;;9.68;100.00;63725.06;4971488;28;20386;-94
2023/05/01 05:12:13;;;;;;;8.13;4.80;;;;;;;9.69;100.00;63726.06;4947925;28;20759;-91
2023/05/01 05:14:39;;;;;;;7.27;4.40;;;;;;;9.70;100.00;63727.16;4959150;28;20043;-89
2023/05/01 05:17:05;;;;;;;7.47;4.60;;;;;;;9.71;100.00;63728.31;4965865;28;20295;-91
2023/05/01 05:19:30;;;;;;;9.23;4.85;;;;;;;9.72;100.00;63729.41;4973680;28;20042;-91
2023/05/01 05:21:55;;;;;;;8.67;4.70;;;;;;;9.74;100.00;63730.56;4956899;28;20024;-90
2023/05/01 05:24:21;;;;;;;9.93;4.63;;;;;;;9.75;100.00;63732.16;4973684;28;20083;-89
2023/05/01 05:26:46;;;;;;;8.25;4.65;;;;;;;9.77;100.00;63734.31;4960442;28;20451;-86
2023/05/01 05:29:12;;;;;;;11.07;4.90;;;;;;;9.79;100.00;63736.56;4958223;28;21213;-87
2023/05/01 05:31:37;;;;;;;8.20;4.67;;;;;;;9.82;99.63;63739.53;4985322;28;20023;-86
2023/05/01 05:34:03;;;;;;;12.48;5.20;;;;;;;9.84;99.52;63742.22;4970578;28;20829;-87
2023/05/01 05:36:28;;;;;;;7.40;5.20;;;;;;;9.87;98.77;63744.69;4978726;28;20058;-88
2023/05/01 05:38:54;;;;;;;10.20;5.27;;;;;;;9.90;98.30;63747.63;4956291;28;20391;-88
2023/05/01 05:41:20;;;;;;;7.97;5.28;;;;;;;9.93;98.43;63750.75;4955149;28;20023;-88
2023/05/01 05:43:45;;;;;;;7.85;4.95;;;;;;;9.96;98.12;63754.25;4967782;28;20138;-89
2023/05/01 05:46:11;;;;;;;14.03;5.10;;;;;;;9.99;98.03;63757.41;4969146;28;20034;-89
2023/05/01 05:48:36;;;;;;;9.13;5.30;;;;;;;10.03;98.02;63760.97;4961445;28;20094;-90
2023/05/01 05:51:01;;;;;;;10.30;5.70;;;;;;;10.07;97.22;63765.38;4957704;29;20116;-89
2023/05/01 05:53:27;;;;;;;9.13;5.33;;;;;;;10.12;96.82;63770.81;4956738;29;20027;-89
2023/05/01 05:55:52;;;;;;;10.45;5.20;;;;;;;10.17;95.64;63775.94;4959154;29;20035;-90
2023/05/01 05:58:21;;;;;;;8.83;5.20;;;;;;;10.23;94.15;63781.59;4957228;29;20047;-87
2023/05/01 06:00:47;;;;;;;9.55;5.38;;;;;;;10.28;93.99;63787.75;4960792;28;20093;-88
2023/05/01 06:03:12;;;;;;;14.03;5.40;;;;;;;10.34;94.08;63793.81;4969058;28;20034;-88
2023/05/01 06:05:38;;;;;;;8.60;5.50;;;;;;;10.41;93.57;63799.84;4961945;28;20337;-89
2023/05/01 06:08:03;;;;;;;10.73;5.30;;;;;;;10.47;91.93;63806.13;4976909;28;20027;-89
2023/05/01 06:10:28;;;;;;;11.47;5.67;;;;;;;10.52;92.26;63811.38;4964378;28;20023;-90
2023/05/01 06:12:54;;;;;;;10.43;5.67;;;;;;;10.57;93.08;63816.38;4955425;29;20019;-89
2023/05/01 06:15:20;;;;;;;9.57;5.50;;;;;;;10.63;93.27;63821.84;4955556;28;20294;-88
2023/05/01 06:17:45;;;;;;;11.63;5.63;;;;;;;10.69;92.42;63828.00;4969422;28;20019;-90
2023/05/01 06:20:12;;;;;;;11.20;5.70;;;;;;;10.75;91.26;63834.56;4960346;29;20836;-90
2023/05/01 06:22:39;;;;;;;9.30;5.78;;;;;;;10.82;90.96;63841.56;4959187;29;20034;-89
2023/05/01 06:25:06;;;;;;;8.23;5.32;;;;;;;10.89;91.26;63849.06;4957187;29;20138;-89
2023/05/01 06:27:31;;;;;;;11.87;5.17;;;;;;;10.97;89.95;63856.88;4963725;28;20034;-89
2023/05/01 06:29:57;;;;;;;10.23;5.57;;;;;;;11.05;89.00;63864.69;4977944;28;20288;-90
2023/05/01 06:32:22;;;;;;;8.53;5.50;;;;;;;11.13;88.91;63873.00;4972535;28;20031;-90
2023/05/01 06:34:48;;;;;;;7.60;5.20;;;;;;;11.21;86.99;63881.41;4955389;29;20027;-90
2023/05/01 06:37:13;;;;;;;12.07;5.47;;;;;;;11.31;86.78;63890.50;4972509;28;20038;-90
2023/05/01 06:39:38;;;;;;;8.17;5.57;;;;;;;11.40;85.06;63899.78;4984431;28;20395;-90
2023/05/01 06:42:03;;;;;;;10.43;5.00;;;;;;;11.49;85.19;63909.28;4975777;28;20043;-90
2023/05/01 06:44:29;;;;;;;6.68;5.00;;;;;;;11.58;82.77;63918.59;4956309;28;20027;-88
2023/05/01 06:46:55;;;;;;;12.57;5.20;;;;;;;11.67;82.55;63927.34;4969005;28;20079;-91
2023/05/01 06:49:21;;;;;;;7.95;5.30;;;;;;;11.77;83.09;63936.91;4971231;28;20029;-90
2023/05/01 06:51:46;;;;;;;8.80;5.37;;;;;;;11.86;81.84;63946.00;4972302;28;20042;-88
2023/05/01 06:54:11;;;;;;;8.43;5.30;;;;;;;11.94;82.05;63955.16;4974384;28;20026;-90
2023/05/01 06:56:37;;;;;;;7.40;5.17;;;;;;;12.04;82.53;63964.66;4966484;28;20042;-89
2023/05/01 06:59:05;;;;;;;8.33;4.87;;;;;;;12.13;81.11;63973.56;4965081;28;20144;-90
2023/05/01 07:01:32;;;;;;;11.15;5.40;;;;;;;12.22;80.17;63982.38;4964816;28;20122;-86
2023/05/01 07:03:57;;;;;;;10.70;5.13;;;;;;;12.30;80.28;63991.22;4954607;28;20031;-89
2023/05/01 07:06:22;;;;;;;7.47;5.10;;;;;;;12.38;79.95;63998.63;4962837;28;20034;-88
2023/05/01 07:08:48;;;;;;;10.80;4.97;;;;;;;12.46;81.70;64006.94;4964430;28;20047;-88
2023/05/01 07:11:13;;;;;;;9.43;5.73;;;;;;;12.55;82.25;64015.69;4964672;28;20050;-89
2023/05/01 07:13:39;;;;;;;10.48;5.15;;;;;;;12.65;80.80;64026.19;4962874;28;20037;-89
2023/05/01 07:16:06;;;;;;;8.57;5.77;;;;;;;12.76;79.25;64036.94;4974307;28;20027;-89
2023/05/01 07:18:31;;;;;;;11.68;5.55;;;;;;;12.87;77.81;64047.78;4965235;28;20082;-89
2023/05/01 07:20:57;;;;;;;11.13;5.40;;;;;;;12.97;77.36;64058.19;4972962;28;20042;-89
2023/05/01 07:23:22;;;;;;;12.40;5.90;;;;;;;13.07;77.45;64068.75;4961151;28;20113;-89
2023/05/01 07:25:47;;;;;;;10.13;5.57;;;;;;;13.18;76.56;64079.34;4957073;28;20049;-90
2023/05/01 07:28:13;;;;;;;11.90;5.87;;;;;;;13.29;76.41;64090.91;4966629;28;20065;-90
2023/05/01 07:30:39;;;;;;;8.10;5.80;;;;;;;13.42;75.67;64104.09;4948497;29;20463;-89
2023/05/01 07:33:05;;;;;;;7.53;5.70;;;;;;;13.55;72.41;64117.28;4954944;28;20062;-89
2023/05/01 07:35:31;;;;;;;7.78;5.35;;;;;;;13.67;71.30;64129.44;4966578;28;20034;-90
2023/05/01 07:37:57;;;;;;;6.68;5.53;;;;;;;13.78;71.82;64141.09;4964091;28;20035;-90
2023/05/01 07:40:22;;;;;;;8.63;5.87;;;;;;;13.89;71.56;64152.28;4959039;28;20105;-90
2023/05/01 07:42:47;;;;;;;8.37;5.47;;;;;;;13.98;72.28;64161.34;4954975;28;20024;-89
2023/05/01 07:45:13;;;;;;;8.82;5.47;;;;;;;14.07;72.61;64169.38;4965386;28;20557;-90
2023/05/01 07:47:38;;;;;;;8.50;5.77;;;;;;;14.15;73.49;64177.69;4968418;28;20035;-90
2023/05/01 07:50:08;;;;;;;7.13;5.27;;;;;;;14.24;72.22;64187.38;4954073;28;20038;-90
2023/05/01 07:52:33;;;;;;;8.07;5.15;;;;;;;14.36;71.51;64199.13;4955675;28;20042;-90
2023/05/01 07:54:59;;;;;;;10.83;6.20;;;;;;;14.48;70.32;64211.22;4954769;28;20034;-89
2023/05/01 07:57:24;;;;;;;8.77;6.00;;;;;;;14.60;69.44;64223.06;4964768;28;20487;-89
2023/05/01 07:59:55;;;;;;;10.43;5.90;;;;;;;14.71;70.65;64234.09;4951357;29;20030;-88
2023/05/01 08:02:20;;;;;;;10.25;5.63;;;;;;;14.81;69.78;64244.44;4971992;28;20067;-88
2023/05/01 08:04:47;;;;;;;9.82;6.43;;;;;;;14.92;70.43;64255.19;4945388;29;20514;-89
2023/05/01 08:07:13;;;;;;;8.93;6.15;;;;;;;15.02;67.87;64265.19;4971739;28;20762;-89
2023/05/01 08:09:38;;;;;;;14.60;6.53;;;;;;;15.11;69.12;64274.88;4978098;28;20285;-88
2023/05/01 08:12:03;;;;;;;9.43;6.07;;;;;;;15.19;70.52;64283.16;4959983;28;20038;-89
2023/05/01 08:14:29;;;;;;;8.27;6.57;;;;;;;15.27;70.34;64291.56;4967820;28;20038;-91
2023/05/01 08:16:54;;;;;;;9.83;7.13;;;;;;;15.34;69.34;64298.56;4960284;28;20090;-92
2023/05/01 08:19:20;;;;;;;9.05;6.22;;;;;;;15.42;69.54;64306.09;4967152;28;20053;-94
2023/05/01 08:21:45;;;;;;;13.27;6.45;;;;;;;15.51;67.22;64314.94;4973435;28;20430;-92
2023/05/01 08:24:11;;;;;;;12.70;6.43;;;;;;;15.58;66.90;64322.78;4967122;28;20031;-91
2023/05/01 08:26:36;;;;;;;11.90;6.37;;;;;;;15.66;67.42;64330.63;4964622;28;20050;-89
2023/05/01 08:29:02;;;;;;;11.03;6.50;;;;;;;15.74;67.71;64338.47;4972472;28;20038;-91
2023/05/01 09:05:05;;;;;;;11.63;6.97;;;;;;;17.27;55.36;64494.25;5795458;23;20038;-93
2023/05/01 09:07:30;;;;;;;11.20;7.28;;;;;;;17.45;55.44;64512.81;4967745;28;20046;-92
2023/05/01 09:09:56;;;;;;;8.67;6.73;;;;;;;17.62;53.47;64530.19;4973340;28;20026;-89
2023/05/01 09:12:24;;;;;;;8.60;6.65;;;;;;;17.79;52.86;64546.81;4972058;28;20474;-90
2023/05/01 09:14:51;;;;;;;10.70;6.78;;;;;;;17.96;52.67;64564.63;4971641;28;20031;-91
2023/05/01 09:17:18;;;;;;;10.10;6.03;;;;;;;18.13;51.20;64581.84;4980086;28;20113;-89
2023/05/01 09:19:44;;;;;;;8.75;6.40;;;;;;;18.27;49.66;64595.84;4976069;28;20039;-91
2023/05/01 09:22:09;;;;;;;8.73;6.27;;;;;;;18.37;50.43;64606.47;4960067;28;20035;-91
2023/05/01 09:24:34;;;;;;;8.17;5.60;;;;;;;18.46;51.17;64615.06;4984377;28;20050;-89
2023/05/01 09:27:00;;;;;;;9.73;6.03;;;;;;;18.53;50.39;64622.25;4987895;28;20023;-90
2023/05/01 09:29:39;;;;;;;8.52;6.30;;;;;;;18.60;53.90;64629.00;4980954;28;20127;-90
2023/05/01 09:32:15;;;;;;;11.50;6.97;;;;;;;18.68;54.97;64636.81;4983457;28;20038;-91
2023/05/01 09:34:40;;;;;;;9.35;6.32;;;;;;;18.75;52.66;64644.09;4956863;28;20427;-93
2023/05/01 09:37:06;;;;;;;8.80;6.40;;;;;;;18.83;52.65;64651.84;4978195;28;20006;-96
2023/05/01 09:39:31;;;;;;;10.67;6.23;;;;;;;18.90;51.90;64659.72;4982890;28;20027;-95
2023/05/01 09:41:57;;;;;;;14.32;6.60;;;;;;;18.97;51.93;64666.19;4974780;28;20047;-93
2023/05/01 09:44:22;;;;;;;10.73;6.40;;;;;;;19.04;53.41;64673.53;4973115;28;20042;-93
2023/05/01 09:46:48;;;;;;;14.43;6.50;;;;;;;19.13;51.71;64682.31;4976604;28;20193;-94
2023/05/01 09:49:14;;;;;;;9.55;6.63;;;;;;;19.20;50.18;64689.69;4972327;28;20035;-96
2023/05/01 09:51:40;;;;;;;9.02;6.10;;;;;;;19.28;50.95;64697.72;4974757;28;20686;-94
2023/05/01 09:54:19;;;;;;;7.73;6.43;;;;;;;19.35;50.56;64705.69;4978222;28;20110;-91
2023/05/01 09:56:47;;;;;;;9.63;6.28;;;;;;;19.42;49.73;64712.88;4943946;29;20124;-95
2023/05/01 09:59:18;;;;;;;8.88;6.53;;;;;;;19.49;48.78;64719.97;4975040;28;20066;-91
2023/05/01 10:01:46;;;;;;;10.55;6.75;;;;;;;19.56;48.62;64727.59;4975930;28;20034;-94
2023/05/01 10:04:12;;;;;;;10.07;7.03;;;;;;;19.65;51.46;64736.47;4975911;28;20035;-92
2023/05/01 10:06:39;;;;;;;11.15;7.00;;;;;;;19.75;49.71;64747.53;4975250;28;20530;-94
2023/05/01 10:09:08;;;;;;;11.50;6.77;;;;;;;19.87;49.33;64758.47;4965500;28;20026;-92
2023/05/01 10:11:50;;;;;;;14.20;7.35;;;;;;;19.96;50.57;64768.44;4977480;28;20069;-92
2023/05/01 10:14:16;;;;;;;11.82;7.13;;;;;;;20.07;48.37;64779.34;4949804;28;20023;-95
2023/05/01 10:16:42;;;;;;;11.60;7.23;;;;;;;20.19;46.74;64791.41;4955788;28;20035;-91
2023/05/01 10:19:08;;;;;;;7.75;6.20;;;;;;;20.32;45.17;64804.38;4956732;28;20035;-91
2023/05/01 10:21:34;;;;;;;8.95;6.55;;;;;;;20.45;46.13;64817.69;4972244;28;20050;-90
2023/05/01 10:24:02;;;;;;;8.93;6.57;;;;;;;20.57;44.33;64830.50;4957088;28;20024;-88
2023/05/01 10:26:27;;;;;;;8.77;6.70;;;;;;;20.70;43.38;64842.56;4969687;28;20037;-90
2023/05/01 10:28:57;;;;;;;7.13;6.43;;;;;;;20.82;43.78;64854.88;4974825;28;20035;-90
2023/05/01 10:31:23;;;;;;;9.75;6.38;;;;;;;20.95;43.92;64867.88;4974650;28;20026;-91
2023/05/01 10:33:49;;;;;;;7.70;6.90;;;;;;;21.08;43.93;64881.69;4978770;28;20031;-96
2023/05/01 10:36:21;;;;;;;10.95;6.75;;;;;;;21.17;43.67;64891.41;5118068;23;20051;-89
2023/05/01 10:38:47;;;;;;;9.47;6.97;;;;;;;21.25;43.09;64899.69;4972687;28;20038;-89
2023/05/01 10:41:15;;;;;;;10.60;6.65;;;;;;;21.30;44.20;64904.56;4968391;28;20027;-90
2023/05/01 10:43:40;;;;;;;11.60;7.80;;;;;;;21.32;45.02;64906.31;4969461;28;20133;-91
2023/05/01 10:46:08;;;;;;;11.57;6.40;;;;;;;21.33;45.01;64908.44;4959122;28;20113;-90
2023/05/01 10:48:36;;;;;;;9.00;6.80;;;;;;;21.37;45.48;64912.19;4947589;28;20075;-91
2023/05/01 10:51:14;;;;;;;9.75;6.55;;;;;;;21.43;45.63;64918.31;4943102;28;20039;-90
2023/05/01 10:53:44;;;;;;;12.27;6.10;;;;;;;21.48;44.42;64923.84;4946959;28;20039;-90
2023/05/01 10:56:35;;;;;;;10.43;7.60;;;;;;;21.57;45.04;64932.22;4940799;28;20035;-90
2023/05/01 10:59:04;;;;;;;11.23;7.05;;;;;;;21.63;45.04;64938.69;4919957;29;20126;-90
2023/05/01 11:01:47;;;;;;;9.07;6.90;;;;;;;21.70;47.13;64945.97;4947211;28;20034;-88
2023/05/01 11:04:21;;;;;;;9.88;6.65;;;;;;;21.78;45.47;64953.94;4919965;28;20093;-87
2023/05/01 11:07:06;;;;;;;12.73;7.50;;;;;;;21.83;46.16;64960.16;4934046;28;20719;-89
2023/05/01 11:09:34;;;;;;;10.27;7.13;;;;;;;21.85;46.17;64961.56;4941653;28;20473;-88
2023/05/01 11:12:00;;;;;;;12.73;7.55;;;;;;;21.85;45.98;64961.75;4919128;28;20089;-87
2023/05/01 11:14:25;;;;;;;9.57;6.30;;;;;;;21.87;46.15;64963.25;4941857;28;20110;-90
2023/05/01 11:16:51;;;;;;;16.17;7.38;;;;;;;21.90;45.17;64965.69;4935889;28;20030;-91
2023/05/01 11:19:22;;;;;;;10.27;6.67;;;;;;;21.93;45.29;64968.34;4936267;28;22136;-91
2023/05/01 11:21:48;;;;;;;9.48;6.97;;;;;;;21.92;45.19;64967.75;4935763;28;20464;-90
2023/05/01 11:24:14;;;;;;;11.65;7.07;;;;;;;21.92;46.63;64967.59;4934459;28;20019;-89
2023/05/01 11:26:41;;;;;;;11.27;6.60;;;;;;;21.94;46.44;64968.94;4937402;28;20050;-89
2023/05/01 11:29:10;;;;;;;8.00;6.88;;;;;;;21.98;45.24;64972.88;4936476;28;20089;-90
2023/05/01 11:31:37;;;;;;;10.63;6.80;;;;;;;22.03;44.77;64978.25;4936247;28;20027;-88
2023/05/01 11:34:05;;;;;;;10.57;7.10;;;;;;;22.09;44.29;64984.94;4936204;28;20341;-89
2023/05/01 11:36:49;;;;;;;10.07;6.85;;;;;;;22.14;44.17;64989.97;4932060;28;20035;-88
2023/05/01 11:39:17;;;;;;;11.52;6.75;;;;;;;22.15;44.27;64991.56;4948821;28;20035;-90
2023/05/01 11:41:43;;;;;;;12.85;7.22;;;;;;;22.14;45.00;64990.47;4919550;28;20030;-91
2023/05/01 11:44:12;;;;;;;12.80;7.55;;;;;;;22.12;45.45;64988.13;4949137;28;20062;-91
2023/05/01 11:46:37;;;;;;;12.10;7.40;;;;;;;22.10;45.55;64985.28;4941781;28;20027;-89
2023/05/01 11:49:02;;;;;;;8.80;6.80;;;;;;;22.07;45.21;64982.59;4922798;29;20027;-89
2023/05/01 11:51:29;;;;;;;12.03;6.93;;;;;;;22.05;46.02;64980.50;4949876;28;20038;-89
2023/05/01 11:54:03;;;;;;;12.02;7.45;;;;;;;22.05;44.84;64979.75;4916551;29;20043;-88
2023/05/01 11:56:30;;;;;;;9.80;6.55;;;;;;;22.04;43.82;64978.66;4952138;29;20046;-90
2023/05/01 11:58:57;;;;;;;8.75;6.32;;;;;;;22.03;44.58;64977.91;4939797;28;20048;-88
2023/05/01 12:01:36;;;;;;;11.55;6.93;;;;;;;22.00;44.68;64975.22;4961219;28;20019;-89
2023/05/01 12:04:03;;;;;;;9.23;6.37;;;;;;;21.97;44.63;64971.63;4929486;28;20470;-90
2023/05/01 12:06:44;;;;;;;9.07;6.60;;;;;;;21.95;46.31;64969.19;4944760;28;20382;-90